Terminal Aerodrome Forecast
Issued by NWS

Home | Current Version | Previous Version | Graphics & Text | Print | Product List | Glossary On
Versions: 1 2 3 4 5 6 7 8 9 10 11 12 13 14 15 16 17 18 19 20 21 22 23
000
FTUS43 KICT 042024 AAB
TAFRSL
TAF AMD
KRSL 042024Z 0420/0518 VRB03KT P6SM VCTS SCT070CB BKN150
      TEMPO 0421/0423 4SM +TSRA OVC040CB
     FM050000 11008KT P6SM VCTS SCT040CB OVC100
      TEMPO 0500/0503 5SM TSRA OVC040CB
     FM050900 16009KT P6SM VCTS OVC030CB
     FM051400 17015G22KT P6SM SCT035 BKN100=

USA.gov is the U.S. government's official web portal to all federal, state and local government web resources and services.